West Redding, Connecticut
Current Conditions -  °F | °C
As of 5:53 PM on Tuesday 21 Oct 2014 (Local Time) from KDXR Reporting Station
Overcast Overcast  
Wind Chill: 56°   Ceiling: 6000
Heat Index: 56°   Visibility: 10mi
Dew Point: 30°   Wind: 0mph
Humidity: 37%   Direction: NA
Pressure: 29.88"   Gusts: NA
Location:  41.3054°N, 73.393°W
Report Text: KDXR 212153Z 00000KT 10SM BKN060 OVC080 13/M01 A2988 RMK AO2 RAE34 SLP117 P0002 T01331011
Loading
Personal Weather Stations






























Interactive Weather Map
Tropical Storm Tracking
New forecast layout! Learn more

10-Day Weather Forecast

Advertisements
Track Severe Weather on mobile